createdAt,value
2022-10-04T00:00:53.585Z,4.7
2022-10-04T00:02:56.759Z,4.9
2022-10-04T00:04:56.361Z,5.2
2022-10-04T00:06:56.044Z,4
2022-10-04T00:08:55.763Z,4.3
2022-10-04T00:10:55.444Z,4.6
2022-10-04T00:12:55.136Z,4.2
2022-10-04T00:16:57.907Z,3.8
2022-10-04T00:18:57.584Z,2.9
2022-10-04T00:20:57.279Z,3.4
2022-10-04T00:22:57.022Z,3.8
2022-10-04T00:24:56.687Z,5.8
2022-10-04T00:26:56.381Z,3.4
2022-10-04T00:28:56.080Z,4.5
2022-10-04T00:32:58.841Z,4.1
2022-10-04T00:34:58.578Z,3.3
2022-10-04T00:37:20.339Z,3.5
2022-10-04T00:39:20.021Z,3.8
2022-10-04T00:43:22.820Z,4.1
2022-10-04T00:45:22.506Z,3.9
2022-10-04T00:47:22.178Z,3.7
2022-10-04T00:49:21.909Z,3.6
2022-10-04T00:51:21.592Z,3.4
2022-10-04T00:53:21.263Z,3.7
2022-10-04T00:55:20.971Z,4
2022-10-04T00:57:24.055Z,3.6
2022-10-04T00:59:23.764Z,3.9
2022-10-04T01:01:23.574Z,3.2
2022-10-04T01:03:23.128Z,4.8
2022-10-04T01:05:22.808Z,4.1
2022-10-04T01:07:22.474Z,3.6
2022-10-04T01:09:22.190Z,4.1
2022-10-04T01:11:25.296Z,4.1
2022-10-04T01:15:24.729Z,3.2
2022-10-04T01:17:24.375Z,3.1
2022-10-04T01:19:24.050Z,3.9
2022-10-04T01:21:23.741Z,3.6
2022-10-04T01:23:23.454Z,3.9
2022-10-04T01:25:26.524Z,3.8
2022-10-04T01:27:26.240Z,3.7
2022-10-04T01:29:25.933Z,4.8
2022-10-04T01:30:27.500Z,4.2
2022-10-04T01:32:27.195Z,4
2022-10-04T01:34:26.880Z,3.6
2022-10-04T01:36:26.581Z,3.3
2022-10-04T01:40:29.387Z,4.6
2022-10-04T01:42:29.091Z,3.8
2022-10-04T01:44:28.776Z,3.6
2022-10-04T01:46:28.559Z,4.5
2022-10-04T01:48:28.205Z,4.4
2022-10-04T01:50:27.890Z,3.7
2022-10-04T01:52:30.992Z,4.2
2022-10-04T01:54:30.690Z,4
2022-10-04T01:56:30.412Z,4.8
2022-10-04T01:58:30.121Z,3.8
2022-10-04T02:00:29.825Z,3.8
2022-10-04T02:02:29.549Z,4.4
2022-10-04T02:04:29.282Z,4.4
2022-10-04T02:06:32.356Z,4.8
2022-10-04T02:08:32.045Z,4.3
2022-10-04T02:10:31.762Z,4.6
2022-10-04T02:12:31.547Z,5.1
2022-10-04T02:16:31.001Z,4.1
2022-10-04T02:18:30.601Z,3.9
2022-10-04T02:20:33.724Z,4.8
2022-10-04T02:22:33.439Z,3.9
2022-10-04T02:24:33.150Z,4.3
2022-10-04T02:25:36.277Z,4.9
2022-10-04T02:27:35.924Z,5.1
2022-10-04T02:29:35.639Z,5.4
2022-10-04T02:31:35.429Z,5.1
2022-10-04T02:33:38.438Z,5.4
2022-10-04T02:35:38.151Z,4.6
2022-10-04T02:37:37.863Z,5.3
2022-10-04T02:39:37.577Z,5.7
2022-10-04T02:41:37.295Z,4.7
2022-10-04T02:43:36.998Z,5.7
2022-10-04T02:45:36.724Z,5
2022-10-04T02:47:39.822Z,5.9
2022-10-04T02:49:39.540Z,5.8
2022-10-04T02:51:39.395Z,5.9
2022-10-04T02:53:39.005Z,6.5
2022-10-04T02:55:38.710Z,5.9
2022-10-04T02:57:38.441Z,5.8
2022-10-04T02:59:38.163Z,7.2
2022-10-04T03:01:41.779Z,6.4
2022-10-04T03:03:41.034Z,6.2
2022-10-04T03:05:40.800Z,6.9
2022-10-04T03:07:40.541Z,6.4
2022-10-04T03:09:40.237Z,6.8
2022-10-04T03:11:40.159Z,7.8
2022-10-04T03:20:43.856Z,9
2022-10-04T03:22:46.740Z,9.3
2022-10-04T03:24:43.353Z,9.9
2022-10-04T03:26:43.065Z,9.7
2022-10-04T03:28:46.220Z,10.1
2022-10-04T03:30:45.971Z,9.6
2022-10-04T03:32:45.675Z,9.8
2022-10-04T03:34:45.447Z,9.8
2022-10-04T03:36:45.190Z,9.5
2022-10-04T03:38:44.914Z,8.9
2022-10-04T03:40:44.648Z,11.4
2022-10-04T03:42:47.768Z,10.7
2022-10-04T03:44:47.520Z,9.4
2022-10-04T03:46:47.265Z,9.5
2022-10-04T03:48:46.984Z,10.4
2022-10-04T03:50:47.644Z,9.9
2022-10-04T03:52:47.387Z,10.3
2022-10-04T03:54:47.094Z,10.5
2022-10-04T03:56:50.239Z,8.9
2022-10-04T03:58:49.970Z,9.7
2022-10-04T04:00:49.795Z,9.1
2022-10-04T04:02:49.443Z,10.3
2022-10-04T04:04:49.196Z,9.2
2022-10-04T04:06:48.929Z,9.2
2022-10-04T04:08:48.645Z,9.1
2022-10-04T04:10:51.785Z,11.9
2022-10-04T04:12:51.542Z,10.4
2022-10-04T04:17:13.075Z,11.3
2022-10-04T04:19:12.808Z,10.1
2022-10-04T04:21:12.553Z,11.5
2022-10-04T04:23:15.713Z,10.4
2022-10-04T04:33:18.953Z,10.6
2022-10-04T04:35:14.212Z,10
2022-10-04T04:37:17.472Z,12.2
2022-10-04T04:39:17.306Z,11.2
2022-10-04T04:41:17.073Z,10.8
2022-10-04T04:43:16.863Z,9.8
2022-10-04T04:45:16.678Z,10.7
2022-10-04T04:49:16.311Z,11.6
2022-10-04T04:53:19.509Z,10.2
2022-10-04T04:55:19.343Z,10.4
2022-10-04T04:57:19.103Z,12.1
2022-10-04T04:59:18.859Z,11.2
2022-10-04T05:01:18.679Z,11.7
2022-10-04T05:03:18.405Z,12.1
2022-10-04T05:05:21.665Z,14.8
2022-10-04T05:07:21.436Z,13.5
2022-10-04T05:09:21.275Z,13.4
2022-10-04T05:10:22.860Z,13.5
2022-10-04T05:12:22.692Z,14.7
2022-10-04T05:14:22.475Z,16.9
2022-10-04T05:16:22.355Z,15.6
2022-10-04T05:18:25.465Z,16.7
2022-10-04T05:20:25.196Z,15.7
2022-10-04T05:22:25.015Z,15
2022-10-04T05:24:24.819Z,13.2
2022-10-04T05:26:24.600Z,14.2
2022-10-04T05:32:27.388Z,17
2022-10-04T05:34:27.230Z,15.9
2022-10-04T05:36:27.127Z,15.4
2022-10-04T05:38:26.707Z,14.5
2022-10-04T05:40:26.501Z,14.8
2022-10-04T05:42:26.256Z,14.9
2022-10-04T05:44:26.112Z,15.3
2022-10-04T05:46:29.385Z,17.3
2022-10-04T05:48:29.083Z,17.7
2022-10-04T05:50:28.886Z,16.9
2022-10-04T05:52:28.734Z,19.8
2022-10-04T05:54:28.581Z,17.4
2022-10-04T05:56:28.333Z,16.6
2022-10-04T05:58:28.106Z,16.8
2022-10-04T06:00:31.272Z,21.7
2022-10-04T06:02:31.250Z,18.9
2022-10-04T06:04:30.971Z,21
2022-10-04T06:05:32.561Z,20.9
2022-10-04T06:07:32.410Z,21.6
2022-10-04T06:09:32.249Z,19.1
2022-10-04T06:11:32.020Z,20.3
2022-10-04T06:13:35.385Z,22.4
2022-10-04T06:15:35.206Z,20.8
2022-10-04T06:17:34.983Z,21.1
2022-10-04T06:19:34.805Z,21.9
2022-10-04T06:21:34.561Z,20.1
2022-10-04T06:23:34.333Z,21.1
2022-10-04T06:25:34.092Z,18.8
2022-10-04T06:27:37.274Z,23.8
2022-10-04T06:29:37.120Z,21.8
2022-10-04T06:31:36.838Z,22.2
2022-10-04T06:35:36.394Z,21.5
2022-10-04T06:37:36.127Z,21.9
2022-10-04T06:39:35.889Z,22.3
2022-10-04T06:41:39.031Z,27.8
2022-10-04T06:43:38.794Z,26.3
2022-10-04T06:45:38.593Z,24.6
2022-10-04T06:47:38.473Z,25.3
2022-10-04T06:49:38.097Z,23.9
2022-10-04T06:51:37.895Z,24.2
2022-10-04T06:53:37.640Z,27
2022-10-04T06:55:40.781Z,29.5
2022-10-04T06:57:40.573Z,27.8
2022-10-04T06:59:40.278Z,30.2
2022-10-04T07:00:41.889Z,33.4
2022-10-04T07:02:41.860Z,28.9
2022-10-04T07:05:07.163Z,25.7
2022-10-04T07:06:41.216Z,31
2022-10-04T07:10:44.238Z,27.4
2022-10-04T07:12:43.986Z,27.9
2022-10-04T07:14:43.729Z,28.8
2022-10-04T07:16:43.499Z,28.1
2022-10-04T07:18:43.245Z,27.8
2022-10-04T07:20:42.974Z,26.5
2022-10-04T07:22:46.150Z,29.4
2022-10-04T07:24:45.897Z,28.2
2022-10-04T07:26:45.633Z,27.3
2022-10-04T07:30:45.218Z,28.6
2022-10-04T07:32:44.873Z,35.2
2022-10-04T07:34:44.596Z,30.8
2022-10-04T07:36:47.776Z,34.1
2022-10-04T07:38:47.515Z,30.3
2022-10-04T07:40:47.247Z,30.3
2022-10-04T07:42:46.965Z,31.4
2022-10-04T07:44:46.715Z,28
2022-10-04T07:46:46.442Z,28.6
2022-10-04T07:48:46.180Z,30.4
2022-10-04T07:50:49.319Z,32.6
2022-10-04T07:52:49.044Z,29.3
2022-10-04T07:54:48.802Z,29.8
2022-10-04T08:03:07.026Z,27.7
2022-10-04T08:05:06.671Z,23.8
2022-10-04T08:11:07.416Z,26.5
2022-10-04T08:13:07.056Z,24.1
2022-10-04T08:15:06.811Z,22.4
2022-10-04T08:17:14.471Z,20.4
2022-10-04T08:19:09.664Z,24.5
2022-10-04T08:21:09.338Z,26.4
2022-10-04T08:23:09.050Z,20.7
2022-10-04T08:25:08.910Z,22.3
2022-10-04T08:27:08.505Z,22.4
2022-10-04T08:29:08.289Z,21.7
2022-10-04T08:31:11.353Z,19.2
2022-10-04T08:33:11.023Z,18.9
2022-10-04T08:35:10.730Z,17.9
2022-10-04T08:37:10.408Z,13.7
2022-10-04T08:39:10.086Z,12
2022-10-04T08:41:09.772Z,8.4
2022-10-04T08:43:09.471Z,8.3
2022-10-04T08:45:12.567Z,8.3
2022-10-04T08:47:12.253Z,6.4
2022-10-04T08:49:11.909Z,6
2022-10-04T08:50:13.428Z,6.4
2022-10-04T08:52:13.089Z,5.6
2022-10-04T08:54:12.764Z,6
2022-10-04T08:56:12.387Z,6.3
2022-10-04T08:58:15.453Z,5.6
2022-10-04T09:00:15.110Z,4.9
2022-10-04T09:02:14.766Z,6.3
2022-10-04T09:04:14.365Z,5.1
2022-10-04T09:06:13.991Z,5.2
2022-10-04T09:08:13.624Z,4.9
2022-10-04T09:10:13.272Z,4.6
2022-10-04T09:12:16.307Z,4.9
2022-10-04T09:16:15.622Z,4.7
2022-10-04T09:18:15.194Z,5.8
2022-10-04T09:20:37.170Z,4.9
2022-10-04T09:22:14.437Z,5
2022-10-04T09:24:14.050Z,4.1
2022-10-04T09:26:17.054Z,5
2022-10-04T09:28:16.712Z,4.2
2022-10-04T09:30:16.279Z,4.5
2022-10-04T09:32:15.873Z,4.1
2022-10-04T09:36:15.026Z,3.6
2022-10-04T09:38:14.632Z,4.6
2022-10-04T09:40:17.579Z,3
2022-10-04T09:42:17.109Z,3.8
2022-10-04T09:44:16.673Z,3.6
2022-10-04T09:45:18.143Z,4.4
2022-10-04T09:53:19.585Z,3.2
2022-10-04T09:55:19.043Z,3.3
2022-10-04T09:57:18.495Z,3.6
2022-10-04T09:59:17.824Z,3.2
2022-10-04T10:03:16.551Z,3.7
2022-10-04T10:05:15.914Z,2.9
2022-10-04T10:07:18.553Z,4.2
2022-10-04T10:09:17.844Z,3.9
2022-10-04T10:11:17.128Z,4.1
2022-10-04T10:13:16.388Z,3.1
2022-10-04T10:15:15.622Z,4.2
2022-10-04T10:23:15.963Z,4.7
2022-10-04T10:31:12.875Z,3.7
2022-10-04T10:33:12.041Z,3.3
2022-10-04T10:35:14.598Z,3.8
2022-10-04T10:37:13.791Z,3.8
2022-10-04T10:39:12.979Z,3.5
2022-10-04T10:40:14.259Z,3
2022-10-04T10:42:13.457Z,3.3
2022-10-04T10:44:12.631Z,3.8
2022-10-04T10:48:14.372Z,3.7
2022-10-04T10:50:13.555Z,3.3
2022-10-04T10:52:12.695Z,3.3
2022-10-04T10:54:11.861Z,2.9
2022-10-04T10:56:11.052Z,3.4
2022-10-04T10:58:10.214Z,3.1
2022-10-04T11:00:09.402Z,3.5
2022-10-04T11:02:12.061Z,3
2022-10-04T11:04:11.074Z,3.1
2022-10-04T11:06:10.219Z,3.5
2022-10-04T11:08:09.372Z,3
2022-10-04T11:10:08.572Z,3.4
2022-10-04T11:12:07.711Z,3.6
2022-10-04T11:14:06.876Z,2.6
2022-10-04T11:16:09.422Z,2.4
2022-10-04T11:18:08.561Z,2.8
2022-10-04T11:20:07.700Z,2.5
2022-10-04T11:22:06.862Z,2.2
2022-10-04T11:28:04.361Z,2.5
2022-10-04T11:44:26.007Z,2.8
2022-10-04T11:54:21.673Z,2.8
2022-10-04T12:04:20.695Z,3.7
2022-10-04T12:06:19.807Z,2.8
2022-10-04T12:08:18.946Z,3.1
2022-10-04T12:10:21.423Z,3.1
2022-10-04T12:14:19.682Z,2
2022-10-04T12:16:18.889Z,3
2022-10-04T12:18:17.938Z,3.2
2022-10-04T12:22:16.218Z,3.4
2022-10-04T12:24:18.706Z,2.4
2022-10-04T12:28:17.052Z,2.7
2022-10-04T12:33:16.535Z,3.2
2022-10-04T12:35:15.713Z,3
2022-10-04T12:37:18.243Z,3.5
2022-10-04T12:39:17.502Z,2.9
2022-10-04T12:41:16.608Z,2.5
2022-10-04T12:43:15.832Z,2.6
2022-10-04T12:45:15.053Z,2.9
2022-10-04T12:47:14.230Z,3.7
2022-10-04T12:49:13.468Z,3.7
2022-10-04T12:51:16.049Z,3.3
2022-10-04T12:53:15.271Z,3.6
2022-10-04T12:55:14.501Z,3
2022-10-04T12:57:13.755Z,2.7
2022-10-04T12:59:12.950Z,2.7
2022-10-04T13:01:12.288Z,3.3
2022-10-04T13:03:11.442Z,3
2022-10-04T13:05:14.044Z,3.4
2022-10-04T13:07:13.274Z,2.9
2022-10-04T13:09:12.516Z,3.2
2022-10-04T13:11:11.781Z,3.1
2022-10-04T13:13:11.012Z,2.8
2022-10-04T13:15:10.318Z,3.4
2022-10-04T13:17:34.468Z,2.8
2022-10-04T13:19:12.092Z,3.6
2022-10-04T13:21:11.276Z,3.4
2022-10-04T13:23:10.519Z,4.1
2022-10-04T13:28:10.281Z,3.2
2022-10-04T13:30:09.448Z,3.5
2022-10-04T13:32:12.068Z,3.4
2022-10-04T13:34:11.228Z,2.9
2022-10-04T13:36:10.441Z,2.8
2022-10-04T13:38:09.650Z,2.9
2022-10-04T13:40:08.888Z,2.5
2022-10-04T13:42:12.291Z,2.8
2022-10-04T13:44:07.283Z,3.2
2022-10-04T13:46:09.956Z,2.7
2022-10-04T13:48:12.823Z,3.1
2022-10-04T13:52:07.493Z,2.5
2022-10-04T13:54:06.716Z,2.5
2022-10-04T13:56:07.495Z,3
2022-10-04T13:58:06.844Z,2.6
2022-10-04T14:00:09.241Z,2.5
2022-10-04T14:02:08.491Z,2.7
2022-10-04T14:04:07.708Z,2.5
2022-10-04T14:06:06.935Z,3.1
2022-10-04T14:08:06.198Z,3.3
2022-10-04T14:10:05.419Z,2.5
2022-10-04T14:12:04.678Z,2.7
2022-10-04T14:14:07.258Z,2.5
2022-10-04T14:18:05.766Z,2.3
2022-10-04T14:19:07.057Z,2.9
2022-10-04T14:27:07.687Z,2.5
2022-10-04T14:29:06.961Z,3.3
2022-10-04T14:33:05.642Z,2.9
2022-10-04T14:35:05.060Z,2.5
2022-10-04T14:37:04.457Z,2.3
2022-10-04T14:39:03.854Z,2.2
2022-10-04T14:51:03.711Z,2.3
2022-10-04T14:57:05.340Z,2.2
2022-10-04T14:59:04.756Z,3.1
2022-10-04T15:03:05.563Z,3.1
2022-10-04T15:05:03.097Z,2.7
2022-10-04T15:07:02.569Z,2.8
2022-10-04T15:09:05.434Z,2.8
2022-10-04T15:11:04.863Z,3.2
2022-10-04T15:13:12.503Z,3.1
2022-10-04T15:15:25.686Z,3.3
2022-10-04T15:17:25.150Z,3.1
2022-10-04T15:19:24.596Z,2.7
2022-10-04T15:21:32.120Z,2.7
2022-10-04T15:23:26.991Z,2.9
2022-10-04T15:25:26.455Z,2.4
2022-10-04T15:27:25.911Z,2.7
2022-10-04T15:29:25.373Z,2.2
2022-10-04T15:31:24.934Z,3.1
2022-10-04T15:33:24.335Z,2.3
2022-10-04T15:35:27.245Z,2.8
2022-10-04T15:37:26.719Z,2.9
2022-10-04T15:39:26.210Z,3.1
2022-10-04T15:41:25.656Z,2.8
2022-10-04T15:43:25.123Z,2.9
2022-10-04T15:45:24.615Z,3.3
2022-10-04T15:47:24.073Z,3.4
2022-10-04T15:49:26.992Z,3.4
2022-10-04T15:51:26.471Z,2.9
2022-10-04T15:53:25.940Z,2.8
2022-10-04T15:55:25.417Z,2.8
2022-10-04T15:57:24.880Z,4.9
2022-10-04T15:59:24.367Z,2.5
2022-10-04T16:01:23.889Z,2.2
2022-10-04T16:03:26.728Z,3.3
2022-10-04T16:08:27.196Z,2.8
2022-10-04T16:10:26.656Z,2.8
2022-10-04T16:12:26.132Z,2.7
2022-10-04T16:14:25.636Z,4.5
2022-10-04T16:18:28.039Z,3.4
2022-10-04T16:20:27.552Z,3.7
2022-10-04T16:22:27.066Z,3.3
2022-10-04T16:28:25.609Z,5.7
2022-10-04T16:30:29.089Z,3.3
2022-10-04T16:32:27.996Z,8.6
2022-10-04T16:34:27.495Z,5.2
2022-10-04T16:36:27.039Z,6
2022-10-04T16:38:26.571Z,6.5
2022-10-04T16:40:26.094Z,4
2022-10-04T16:42:25.636Z,3.8
2022-10-04T16:44:28.589Z,3.2
2022-10-04T16:52:26.729Z,3.7
2022-10-04T16:54:26.305Z,8.4
2022-10-04T16:56:25.844Z,4.7
2022-10-04T16:58:28.827Z,5.9
2022-10-04T17:00:28.452Z,4.3
2022-10-04T17:02:28.053Z,3
2022-10-04T17:03:29.428Z,3.6
2022-10-04T17:05:28.970Z,4.4
2022-10-04T17:07:28.569Z,5.3
2022-10-04T17:09:28.120Z,4.8
2022-10-04T17:11:31.068Z,3.8
2022-10-04T17:13:30.670Z,3.9
2022-10-04T17:15:30.238Z,3.8
2022-10-04T17:17:29.829Z,3.7
2022-10-04T17:19:29.404Z,3.9
2022-10-04T17:21:28.962Z,3.8
2022-10-04T17:23:28.551Z,3.4
2022-10-04T17:25:31.570Z,3.8
2022-10-04T17:27:31.163Z,4.3
2022-10-04T17:29:30.735Z,4.1
2022-10-04T17:31:30.387Z,3.4
2022-10-04T17:33:29.912Z,3.7
2022-10-04T17:35:29.478Z,3.4
2022-10-04T17:37:29.052Z,3.7
2022-10-04T17:39:32.040Z,3.3
2022-10-04T17:41:31.600Z,2.9
2022-10-04T17:43:31.172Z,5
2022-10-04T17:45:30.735Z,4.2
2022-10-04T17:47:30.294Z,3.4
2022-10-04T17:49:29.856Z,4
2022-10-04T17:51:29.417Z,4.1
2022-10-04T17:53:32.391Z,4
2022-10-04T17:55:31.954Z,4.2
2022-10-04T17:57:31.514Z,3.1
2022-10-04T17:58:33.036Z,3.3
2022-10-04T18:00:32.581Z,3.9
2022-10-04T18:02:32.241Z,3.7
2022-10-04T18:08:34.665Z,3.8
2022-10-04T18:10:34.198Z,4.1
2022-10-04T18:12:33.764Z,4
2022-10-04T18:14:33.335Z,3.3
2022-10-04T18:16:32.936Z,3.4
2022-10-04T18:18:32.438Z,3.6
2022-10-04T18:20:35.419Z,3.4
2022-10-04T18:22:34.958Z,4.3
2022-10-04T18:28:33.721Z,3.5
2022-10-04T18:30:33.217Z,4.2
2022-10-04T18:32:32.776Z,3.6
2022-10-04T18:34:35.773Z,4.7
2022-10-04T18:36:35.325Z,4.4
2022-10-04T18:38:34.869Z,4.8
2022-10-04T18:40:34.444Z,3.6
2022-10-04T18:42:33.995Z,3.8
2022-10-04T18:44:33.581Z,4.7
2022-10-04T18:46:33.200Z,4.4
2022-10-04T18:48:36.107Z,3.8
2022-10-04T18:50:35.672Z,4.9
2022-10-04T18:52:35.236Z,4.2
2022-10-04T18:54:56.838Z,5.7
2022-10-04T18:56:56.407Z,3.5
2022-10-04T18:58:55.983Z,3.6
2022-10-04T19:00:59.050Z,4.1
2022-10-04T19:02:58.590Z,3.2
2022-10-04T19:04:58.140Z,4.1
2022-10-04T19:06:57.720Z,3.7
2022-10-04T19:08:57.263Z,4.6
2022-10-04T19:10:56.848Z,4.2
2022-10-04T19:12:56.422Z,3.5
2022-10-04T19:14:59.424Z,3.3
2022-10-04T19:16:59.047Z,3.1
2022-10-04T19:18:58.590Z,3.7
2022-10-04T19:20:58.183Z,3.9
2022-10-04T19:22:57.741Z,15.1
2022-10-04T19:24:57.354Z,6.2
2022-10-04T19:26:56.915Z,4.8
2022-10-04T19:28:59.898Z,3.8
2022-10-04T19:30:59.524Z,4
2022-10-04T19:32:59.103Z,4.4
2022-10-04T19:34:58.663Z,4.1
2022-10-04T19:36:58.256Z,3.7
2022-10-04T19:40:58.974Z,4
2022-10-04T19:43:01.943Z,3.9
2022-10-04T19:45:01.530Z,4.5
2022-10-04T19:47:01.107Z,4.5
2022-10-04T19:48:02.747Z,3.9
2022-10-04T19:50:02.195Z,4.7
2022-10-04T19:52:01.786Z,3.8
2022-10-04T19:54:01.357Z,4
2022-10-04T19:56:04.368Z,4.1
2022-10-04T19:58:03.938Z,4
2022-10-04T20:04:02.710Z,4.7
2022-10-04T20:06:02.321Z,3.3
2022-10-04T20:08:01.901Z,4.2
2022-10-04T20:10:04.905Z,4.9
2022-10-04T20:12:04.507Z,4.4
2022-10-04T20:14:04.112Z,4.2
2022-10-04T20:16:03.761Z,4.1
2022-10-04T20:18:03.287Z,3.5
2022-10-04T20:20:02.860Z,4.4
2022-10-04T20:22:02.453Z,5
2022-10-04T20:24:05.458Z,6
2022-10-04T20:26:05.062Z,4.2
2022-10-04T20:28:04.641Z,3.8
2022-10-04T20:30:04.420Z,4.4
2022-10-04T20:32:03.900Z,4.4
2022-10-04T20:34:03.445Z,4.4
2022-10-04T20:36:02.931Z,4.1
2022-10-04T20:38:30.479Z,3.7
2022-10-04T20:40:05.584Z,3.3
2022-10-04T20:42:05.066Z,3.4
2022-10-04T20:43:10.294Z,3.8
2022-10-04T20:45:06.117Z,3.4
2022-10-04T20:47:05.684Z,3.9
2022-10-04T20:49:05.259Z,3.8
2022-10-04T20:51:08.238Z,3.7
2022-10-04T20:53:07.795Z,3.7
2022-10-04T20:55:07.326Z,4
2022-10-04T20:57:06.882Z,3.8
2022-10-04T20:59:06.447Z,4.3
2022-10-04T21:01:06.010Z,3.3
2022-10-04T21:03:05.545Z,3.5
2022-10-04T21:05:08.566Z,5.1
2022-10-04T21:07:08.143Z,4.2
2022-10-04T21:09:07.651Z,4.1
2022-10-04T21:11:07.242Z,3.8
2022-10-04T21:13:06.794Z,3.8
2022-10-04T21:15:06.352Z,4.1
2022-10-04T21:17:06.057Z,3.4
2022-10-04T21:19:08.943Z,4
2022-10-04T21:23:08.058Z,3.6
2022-10-04T21:25:07.596Z,4
2022-10-04T21:27:07.173Z,4.6
2022-10-04T21:29:06.750Z,4.6
2022-10-04T21:31:06.310Z,3.6
2022-10-04T21:33:09.272Z,4.6
2022-10-04T21:35:08.858Z,3.6
2022-10-04T21:37:08.431Z,4.6
2022-10-04T21:38:09.913Z,3.5
2022-10-04T21:40:09.470Z,4.1
2022-10-04T21:42:09.044Z,5.1
2022-10-04T21:44:08.654Z,4.1
2022-10-04T21:46:13.511Z,4.2
2022-10-04T21:48:11.201Z,3.5
2022-10-04T21:50:10.748Z,4
2022-10-04T21:52:10.317Z,5.1
2022-10-04T21:54:09.862Z,4
2022-10-04T21:56:09.461Z,4.8
2022-10-04T21:58:09.020Z,4.4
2022-10-04T22:00:18.423Z,4.2
2022-10-04T22:02:11.671Z,4.2
2022-10-04T22:04:11.181Z,4.7
2022-10-04T22:08:10.283Z,5.1
2022-10-04T22:10:09.882Z,4.6
2022-10-04T22:12:09.436Z,4.1
2022-10-04T22:20:11.171Z,5.2
2022-10-04T22:22:10.774Z,5.3
2022-10-04T22:24:10.320Z,4.8
2022-10-04T22:26:09.892Z,4.4
2022-10-04T22:28:12.905Z,5.4
2022-10-04T22:30:12.466Z,5.6
2022-10-04T22:32:12.141Z,4.4
2022-10-04T22:34:31.129Z,5.5
2022-10-04T22:36:30.729Z,4.7
2022-10-04T22:38:30.283Z,4.9
2022-10-04T22:42:32.821Z,4.8
2022-10-04T22:44:32.444Z,4.5
2022-10-04T22:46:31.984Z,4.8
2022-10-04T22:48:31.551Z,3.8
2022-10-04T22:50:31.119Z,4.9
2022-10-04T22:52:30.681Z,4.6
2022-10-04T22:54:33.673Z,4.7
2022-10-04T22:56:33.229Z,4.4
2022-10-04T22:58:32.785Z,4.1
2022-10-04T23:00:32.375Z,4.8
2022-10-04T23:02:31.985Z,5.2
2022-10-04T23:04:31.617Z,4.7
2022-10-04T23:06:31.050Z,4.7
2022-10-04T23:08:34.059Z,4.6
2022-10-04T23:10:33.582Z,4.4
2022-10-04T23:12:33.168Z,5.3
2022-10-04T23:14:32.748Z,4.6
2022-10-04T23:16:32.357Z,5.9
2022-10-04T23:18:31.867Z,4.6
2022-10-04T23:20:31.439Z,4.6
2022-10-04T23:22:34.433Z,5.4
2022-10-04T23:24:34.002Z,5.3
2022-10-04T23:26:33.579Z,5.3
2022-10-04T23:27:35.067Z,4.9
2022-10-04T23:29:34.652Z,5.8
2022-10-04T23:31:34.264Z,5.7
2022-10-04T23:33:33.777Z,5.3
2022-10-04T23:35:36.783Z,5.5
2022-10-04T23:37:36.332Z,6.4
2022-10-04T23:39:35.914Z,6
2022-10-04T23:41:35.513Z,4.2
2022-10-04T23:43:35.064Z,5.7
2022-10-04T23:45:34.738Z,4.8
2022-10-04T23:47:34.246Z,5.5
2022-10-04T23:49:37.249Z,5
2022-10-04T23:51:36.831Z,5.6
2022-10-04T23:53:36.408Z,5.7
2022-10-04T23:55:35.969Z,6.5
2022-10-04T23:57:35.546Z,5.4
